createdAt,value
2023-01-30T00:00:31.284Z,1010.41
2023-01-30T00:01:31.259Z,1010.39
2023-01-30T00:02:31.260Z,1010.38
2023-01-30T00:03:31.254Z,1010.49
2023-01-30T00:04:31.249Z,1010.35
2023-01-30T00:05:31.224Z,1010.34
2023-01-30T00:06:31.224Z,1010.35
2023-01-30T00:07:31.196Z,1010.23
2023-01-30T00:08:31.234Z,1010.17
2023-01-30T00:09:31.170Z,1010.13
2023-01-30T00:10:31.204Z,1010.21
2023-01-30T00:11:31.159Z,1010.06
2023-01-30T00:12:31.163Z,1010.14
2023-01-30T00:13:31.127Z,1010.12
2023-01-30T00:14:31.159Z,1010.15
2023-01-30T00:15:31.109Z,1010.17
2023-01-30T00:16:31.192Z,1010.15
2023-01-30T00:17:31.092Z,1010.14
2023-01-30T00:18:31.110Z,1010.25
2023-01-30T00:19:31.062Z,1010.29
2023-01-30T00:20:31.087Z,1010.30
2023-01-30T00:21:31.081Z,1010.28
2023-01-30T00:22:31.062Z,1010.21
2023-01-30T00:23:31.022Z,1010.16
2023-01-30T00:24:31.201Z,1010.18
2023-01-30T00:25:31.121Z,1010.28
2023-01-30T00:26:31.064Z,1010.37
2023-01-30T00:27:30.980Z,1010.27
2023-01-30T00:28:30.990Z,1010.23
2023-01-30T00:29:30.972Z,1010.13
2023-01-30T00:30:31.037Z,1010.15
2023-01-30T00:31:31.110Z,1010.14
2023-01-30T00:32:30.963Z,1010.15
2023-01-30T00:33:30.922Z,1010.12
2023-01-30T00:34:30.930Z,1010.10
2023-01-30T00:35:30.903Z,1010.14
2023-01-30T00:36:30.940Z,1010.11
2023-01-30T00:37:30.883Z,1010.10
2023-01-30T00:38:30.888Z,1010.03
2023-01-30T00:39:30.856Z,1010.10
2023-01-30T00:40:30.871Z,1010.03
2023-01-30T00:41:30.834Z,1009.99
2023-01-30T00:42:30.911Z,1009.92
2023-01-30T00:43:30.817Z,1009.86
2023-01-30T00:44:30.840Z,1009.87
2023-01-30T00:45:30.851Z,1009.79
2023-01-30T00:46:30.826Z,1009.67
2023-01-30T00:47:30.771Z,1009.67
2023-01-30T00:48:30.822Z,1009.62
2023-01-30T00:49:31.903Z,1009.68
2023-01-30T00:50:30.762Z,1009.66
2023-01-30T00:51:30.730Z,1009.55
2023-01-30T00:52:30.753Z,1009.59
2023-01-30T00:53:30.711Z,1009.64
2023-01-30T00:54:30.744Z,1009.57
2023-01-30T00:55:30.689Z,1009.51
2023-01-30T00:56:30.703Z,1009.52
2023-01-30T00:57:30.669Z,1009.51
2023-01-30T00:58:30.713Z,1009.62
2023-01-30T00:59:30.649Z,1009.58
2023-01-30T01:00:30.678Z,1009.57
2023-01-30T01:01:30.646Z,1009.52
2023-01-30T01:02:30.643Z,1009.49
2023-01-30T01:03:30.607Z,1009.52
2023-01-30T01:04:30.630Z,1009.47
2023-01-30T01:05:30.589Z,1009.45
2023-01-30T01:06:30.622Z,1009.43
2023-01-30T01:07:30.575Z,1009.28
2023-01-30T01:08:30.581Z,1009.33
2023-01-30T01:09:30.546Z,1009.37
2023-01-30T01:10:30.571Z,1009.45
2023-01-30T01:11:30.536Z,1009.30
2023-01-30T01:12:30.563Z,1009.27
2023-01-30T01:13:30.507Z,1009.30
2023-01-30T01:14:30.516Z,1009.32
2023-01-30T01:15:30.497Z,1009.43
2023-01-30T01:16:30.570Z,1009.30
2023-01-30T01:17:30.466Z,1009.30
2023-01-30T01:18:30.513Z,1009.22
2023-01-30T01:19:30.445Z,1009.24
2023-01-30T01:20:30.487Z,1009.20
2023-01-30T01:21:30.421Z,1009.10
2023-01-30T01:22:30.434Z,1009.12
2023-01-30T01:23:30.406Z,1009.15
2023-01-30T01:24:30.439Z,1009.12
2023-01-30T01:25:30.393Z,1009.11
2023-01-30T01:26:30.450Z,1009.08
2023-01-30T01:27:30.368Z,1009.05
2023-01-30T01:28:30.385Z,1008.99
2023-01-30T01:29:30.339Z,1009.00
2023-01-30T01:30:30.375Z,1008.89
2023-01-30T01:31:30.426Z,1008.88
2023-01-30T01:32:30.334Z,1008.80
2023-01-30T01:33:30.298Z,1008.75
2023-01-30T01:34:30.327Z,1008.66
2023-01-30T01:35:30.291Z,1008.58
2023-01-30T01:37:30.263Z,1008.62
2023-01-30T01:38:30.275Z,1008.74
2023-01-30T01:39:30.241Z,1008.85
2023-01-30T01:40:30.268Z,1008.76
2023-01-30T01:41:30.224Z,1008.77
2023-01-30T01:42:30.267Z,1008.69
2023-01-30T01:43:30.194Z,1008.63
2023-01-30T01:44:30.211Z,1008.61
2023-01-30T01:45:30.179Z,1008.52
2023-01-30T01:46:30.188Z,1008.44
2023-01-30T01:47:30.171Z,1008.45
2023-01-30T01:48:30.190Z,1008.53
2023-01-30T01:49:30.131Z,1008.53
2023-01-30T01:50:30.153Z,1008.48
2023-01-30T01:51:30.117Z,1008.57
2023-01-30T01:52:30.130Z,1008.57
2023-01-30T01:53:30.093Z,1008.60
2023-01-30T01:54:30.139Z,1008.72
2023-01-30T01:55:30.071Z,1008.66
2023-01-30T01:56:30.091Z,1008.54
2023-01-30T01:57:30.055Z,1008.58
2023-01-30T01:58:30.063Z,1008.62
2023-01-30T01:59:30.040Z,1008.55
2023-01-30T02:00:30.060Z,1008.59
2023-01-30T02:01:30.089Z,1008.61
2023-01-30T02:02:30.172Z,1008.64
2023-01-30T02:03:29.989Z,1008.56
2023-01-30T02:04:29.998Z,1008.53
2023-01-30T02:05:29.973Z,1008.47
2023-01-30T02:06:29.997Z,1008.36
2023-01-30T02:07:29.964Z,1008.36
2023-01-30T02:08:29.958Z,1008.35
2023-01-30T02:09:29.926Z,1008.39
2023-01-30T02:10:29.940Z,1008.32
2023-01-30T02:11:29.902Z,1008.26
2023-01-30T02:12:29.938Z,1008.23
2023-01-30T02:13:29.883Z,1008.35
2023-01-30T02:14:29.899Z,1008.29
2023-01-30T02:15:29.877Z,1008.22
2023-01-30T02:16:29.881Z,1008.14
2023-01-30T02:17:29.884Z,1008.22
2023-01-30T02:18:29.885Z,1008.29
2023-01-30T02:19:29.826Z,1008.12
2023-01-30T02:20:29.830Z,1008.20
2023-01-30T02:21:29.804Z,1008.11
2023-01-30T02:22:29.817Z,1008.13
2023-01-30T02:23:29.797Z,1008.18
2023-01-30T02:24:29.825Z,1008.12
2023-01-30T02:25:29.768Z,1008.14
2023-01-30T02:26:29.858Z,1008.12
2023-01-30T02:27:29.754Z,1008.08
2023-01-30T02:28:29.753Z,1008.03
2023-01-30T02:29:29.723Z,1007.91
2023-01-30T02:30:29.894Z,1007.94
2023-01-30T02:31:29.886Z,1007.87
2023-01-30T02:32:29.692Z,1007.85
2023-01-30T02:33:29.704Z,1007.95
2023-01-30T02:34:29.663Z,1007.82
2023-01-30T02:35:29.680Z,1007.82
2023-01-30T02:36:29.662Z,1007.81
2023-01-30T02:37:29.698Z,1007.72
2023-01-30T02:38:29.642Z,1007.68
2023-01-30T02:39:29.647Z,1007.73
2023-01-30T02:40:29.622Z,1007.66
2023-01-30T02:41:29.629Z,1007.68
2023-01-30T02:42:29.625Z,1007.81
2023-01-30T02:43:29.606Z,1007.82
2023-01-30T02:44:29.567Z,1007.80
2023-01-30T02:45:29.573Z,1007.92
2023-01-30T02:46:29.543Z,1007.90
2023-01-30T02:47:29.560Z,1007.85
2023-01-30T02:48:29.540Z,1007.85
2023-01-30T02:49:29.539Z,1007.84
2023-01-30T02:50:29.506Z,1007.75
2023-01-30T02:51:29.516Z,1007.63
2023-01-30T02:52:29.483Z,1007.62
2023-01-30T02:53:29.495Z,1007.63
2023-01-30T02:54:29.504Z,1007.62
2023-01-30T02:55:29.471Z,1007.63
2023-01-30T02:56:29.441Z,1007.70
2023-01-30T02:57:29.470Z,1007.59
2023-01-30T02:58:29.419Z,1007.63
2023-01-30T02:59:29.437Z,1007.71
2023-01-30T03:00:29.436Z,1007.64
2023-01-30T03:01:29.464Z,1007.43
2023-01-30T03:02:29.416Z,1007.46
2023-01-30T03:03:29.393Z,1007.45
2023-01-30T03:04:29.372Z,1007.37
2023-01-30T03:05:29.370Z,1007.35
2023-01-30T03:06:29.350Z,1007.33
2023-01-30T03:07:29.349Z,1007.39
2023-01-30T03:08:29.313Z,1007.37
2023-01-30T03:09:29.349Z,1007.35
2023-01-30T03:10:29.293Z,1007.27
2023-01-30T03:11:29.302Z,1007.21
2023-01-30T03:12:29.297Z,1007.22
2023-01-30T03:13:29.294Z,1007.22
2023-01-30T03:14:29.258Z,1007.25
2023-01-30T03:15:29.281Z,1007.22
2023-01-30T03:16:29.236Z,1007.16
2023-01-30T03:17:29.243Z,1007.16
2023-01-30T03:18:29.245Z,1007.08
2023-01-30T03:19:29.224Z,1007.10
2023-01-30T03:20:29.189Z,1007.22
2023-01-30T03:21:29.203Z,1007.05
2023-01-30T03:22:29.168Z,1006.98
2023-01-30T03:23:29.184Z,1006.97
2023-01-30T03:24:29.171Z,1007.01
2023-01-30T03:25:29.229Z,1006.98
2023-01-30T03:26:29.152Z,1006.96
2023-01-30T03:27:29.154Z,1006.92
2023-01-30T03:28:29.115Z,1006.99
2023-01-30T03:29:29.122Z,1006.96
2023-01-30T03:30:29.107Z,1006.90
2023-01-30T03:31:29.236Z,1006.88
2023-01-30T03:32:29.073Z,1006.95
2023-01-30T03:33:29.075Z,1006.95
2023-01-30T03:34:29.043Z,1006.96
2023-01-30T03:35:29.070Z,1007.06
2023-01-30T03:36:29.056Z,1006.97
2023-01-30T03:37:29.035Z,1006.91
2023-01-30T03:38:29.041Z,1006.99
2023-01-30T03:39:29.020Z,1007.09
2023-01-30T03:40:28.996Z,1007.01
2023-01-30T03:41:29.013Z,1007.03
2023-01-30T03:42:28.991Z,1007.08
2023-01-30T03:43:28.976Z,1006.98
2023-01-30T03:44:28.955Z,1007.01
2023-01-30T03:45:28.956Z,1006.94
2023-01-30T03:46:28.970Z,1007.03
2023-01-30T03:47:28.938Z,1006.86
2023-01-30T03:48:28.923Z,1006.96
2023-01-30T03:49:28.921Z,1006.79
2023-01-30T03:50:28.874Z,1006.77
2023-01-30T03:51:28.890Z,1006.79
2023-01-30T03:52:28.867Z,1006.79
2023-01-30T03:53:28.869Z,1006.75
2023-01-30T03:54:28.872Z,1006.73
2023-01-30T03:55:28.849Z,1006.66
2023-01-30T03:56:28.827Z,1006.60
2023-01-30T03:57:28.843Z,1006.56
2023-01-30T03:58:28.796Z,1006.56
2023-01-30T03:59:28.818Z,1006.57
2023-01-30T04:00:28.804Z,1006.61
2023-01-30T04:01:28.828Z,1006.58
2023-01-30T04:02:28.801Z,1006.55
2023-01-30T04:03:28.776Z,1006.61
2023-01-30T04:04:28.734Z,1006.56
2023-01-30T04:05:28.744Z,1006.52
2023-01-30T04:06:28.753Z,1006.49
2023-01-30T04:07:28.725Z,1006.54
2023-01-30T04:08:28.688Z,1006.68
2023-01-30T04:09:28.699Z,1006.52
2023-01-30T04:10:28.678Z,1006.44
2023-01-30T04:11:28.687Z,1006.45
2023-01-30T04:12:28.662Z,1006.56
2023-01-30T04:13:28.666Z,1006.43
2023-01-30T04:14:28.625Z,1006.41
2023-01-30T04:15:28.638Z,1006.41
2023-01-30T04:16:28.632Z,1006.40
2023-01-30T04:17:28.621Z,1006.49
2023-01-30T04:18:28.597Z,1006.47
2023-01-30T04:19:28.613Z,1006.53
2023-01-30T04:20:28.585Z,1006.52
2023-01-30T04:21:28.578Z,1006.53
2023-01-30T04:22:28.548Z,1006.50
2023-01-30T04:23:28.566Z,1006.51
2023-01-30T04:24:28.555Z,1006.51
2023-01-30T04:25:28.534Z,1006.51
2023-01-30T04:26:28.566Z,1006.61
2023-01-30T04:27:28.521Z,1006.47
2023-01-30T04:28:28.481Z,1006.47
2023-01-30T04:29:28.501Z,1006.38
2023-01-30T04:30:28.536Z,1006.39
2023-01-30T04:31:28.494Z,1006.47
2023-01-30T04:32:28.451Z,1006.40
2023-01-30T04:33:28.455Z,1006.40
2023-01-30T04:34:28.423Z,1006.31
2023-01-30T04:35:28.438Z,1006.32
2023-01-30T04:36:28.419Z,1006.28
2023-01-30T04:37:28.414Z,1006.35
2023-01-30T04:38:28.378Z,1006.32
2023-01-30T04:39:28.389Z,1006.28
2023-01-30T04:40:28.378Z,1006.27
2023-01-30T04:41:28.352Z,1006.22
2023-01-30T04:42:28.503Z,1006.27
2023-01-30T04:43:28.332Z,1006.22
2023-01-30T04:44:28.353Z,1006.25
2023-01-30T04:45:29.328Z,1006.29
2023-01-30T04:46:28.328Z,1006.27
2023-01-30T04:47:28.317Z,1006.33
2023-01-30T04:48:28.349Z,1006.64
2023-01-30T04:49:28.262Z,1006.40
2023-01-30T04:50:28.281Z,1006.36
2023-01-30T04:51:28.252Z,1006.40
2023-01-30T04:52:28.262Z,1006.32
2023-01-30T04:53:28.231Z,1006.27
2023-01-30T04:54:28.262Z,1006.42
2023-01-30T04:55:28.200Z,1006.39
2023-01-30T04:56:28.216Z,1006.34
2023-01-30T04:57:28.186Z,1006.34
2023-01-30T04:58:28.208Z,1006.28
2023-01-30T04:59:28.161Z,1006.28
2023-01-30T05:00:28.227Z,1006.21
2023-01-30T05:01:28.145Z,1006.20
2023-01-30T05:02:28.150Z,1006.18
2023-01-30T05:03:28.135Z,1006.22
2023-01-30T05:04:28.140Z,1006.18
2023-01-30T05:05:28.099Z,1006.22
2023-01-30T05:06:28.129Z,1006.36
2023-01-30T05:07:28.080Z,1006.19
2023-01-30T05:08:28.095Z,1006.33
2023-01-30T05:09:28.055Z,1006.21
2023-01-30T05:10:28.180Z,1006.26
2023-01-30T05:11:28.044Z,1006.24
2023-01-30T05:12:28.086Z,1006.16
2023-01-30T05:13:28.012Z,1006.20
2023-01-30T05:14:28.028Z,1006.12
2023-01-30T05:15:27.998Z,1006.12
2023-01-30T05:16:28.012Z,1006.16
2023-01-30T05:17:28.004Z,1006.10
2023-01-30T05:18:28.007Z,1006.13
2023-01-30T05:19:27.963Z,1006.05
2023-01-30T05:20:27.974Z,1006.16
2023-01-30T05:21:28.027Z,1006.08
2023-01-30T05:22:27.943Z,1006.04
2023-01-30T05:23:27.919Z,1006.00
2023-01-30T05:24:27.944Z,1006.03
2023-01-30T05:25:27.905Z,1006.00
2023-01-30T05:26:27.977Z,1005.95
2023-01-30T05:27:27.871Z,1005.88
2023-01-30T05:28:27.891Z,1005.98
2023-01-30T05:29:27.852Z,1005.87
2023-01-30T05:30:27.896Z,1005.89
2023-01-30T05:31:27.861Z,1005.85
2023-01-30T05:32:27.843Z,1005.91
2023-01-30T05:33:27.808Z,1005.84
2023-01-30T05:34:27.818Z,1005.84
2023-01-30T05:35:27.812Z,1005.88
2023-01-30T05:36:27.822Z,1005.81
2023-01-30T05:37:27.766Z,1005.82
2023-01-30T05:38:27.776Z,1005.80
2023-01-30T05:39:27.750Z,1005.76
2023-01-30T05:40:27.755Z,1005.78
2023-01-30T05:41:27.720Z,1005.87
2023-01-30T05:42:27.751Z,1005.81
2023-01-30T05:43:27.701Z,1005.87
2023-01-30T05:44:27.725Z,1005.94
2023-01-30T05:45:27.687Z,1005.95
2023-01-30T05:46:27.715Z,1005.89
2023-01-30T05:47:27.659Z,1005.98
2023-01-30T05:48:27.741Z,1005.98
2023-01-30T05:49:27.887Z,1005.95
2023-01-30T05:50:27.659Z,1005.91
2023-01-30T05:51:27.641Z,1005.87
2023-01-30T05:52:27.628Z,1005.90
2023-01-30T05:53:27.613Z,1005.88
2023-01-30T05:54:27.628Z,1005.92
2023-01-30T05:55:27.580Z,1005.93
2023-01-30T05:56:27.618Z,1006.04
2023-01-30T05:57:27.559Z,1006.01
2023-01-30T05:58:27.577Z,1005.98
2023-01-30T05:59:27.534Z,1005.98
2023-01-30T06:00:27.570Z,1005.95
2023-01-30T06:01:27.513Z,1005.91
2023-01-30T06:02:27.560Z,1005.95
2023-01-30T06:03:27.516Z,1005.85
2023-01-30T06:04:27.510Z,1005.93
2023-01-30T06:05:27.475Z,1005.91
2023-01-30T06:06:27.505Z,1005.91
2023-01-30T06:07:27.458Z,1005.89
2023-01-30T06:08:27.466Z,1005.97
2023-01-30T06:09:27.432Z,1005.89
2023-01-30T06:10:27.446Z,1005.87
2023-01-30T06:11:27.412Z,1005.95
2023-01-30T06:12:27.441Z,1005.85
2023-01-30T06:13:27.390Z,1005.84
2023-01-30T06:14:27.402Z,1005.85
2023-01-30T06:15:27.366Z,1005.88
2023-01-30T06:16:27.472Z,1005.86
2023-01-30T06:17:29.104Z,1005.84
2023-01-30T06:18:27.379Z,1005.87
2023-01-30T06:19:27.334Z,1005.90
2023-01-30T06:20:27.344Z,1005.90
2023-01-30T06:21:27.312Z,1005.92
2023-01-30T06:22:27.323Z,1005.96
2023-01-30T06:23:27.290Z,1005.85
2023-01-30T06:24:27.313Z,1005.71
2023-01-30T06:25:27.280Z,1005.76
2023-01-30T06:26:27.314Z,1005.82
2023-01-30T06:27:27.262Z,1005.81
2023-01-30T06:28:27.286Z,1005.88
2023-01-30T06:29:27.229Z,1006.03
2023-01-30T06:30:27.293Z,1005.98
2023-01-30T06:31:27.288Z,1005.95
2023-01-30T06:32:27.220Z,1005.99
2023-01-30T06:33:27.191Z,1006.05
2023-01-30T06:34:27.207Z,1006.08
2023-01-30T06:35:27.167Z,1006.09
2023-01-30T06:36:27.198Z,1006.11
2023-01-30T06:37:27.162Z,1006.12
2023-01-30T06:38:27.157Z,1006.16
2023-01-30T06:39:27.135Z,1006.21
2023-01-30T06:40:27.149Z,1006.19
2023-01-30T06:41:27.103Z,1006.19
2023-01-30T06:42:27.135Z,1006.22
2023-01-30T06:43:27.081Z,1006.22
2023-01-30T06:44:27.103Z,1006.19
2023-01-30T06:45:27.061Z,1006.25
2023-01-30T06:46:27.051Z,1006.27
2023-01-30T06:47:27.077Z,1006.26
2023-01-30T06:48:27.045Z,1006.29
2023-01-30T06:49:27.036Z,1006.30
2023-01-30T06:50:27.019Z,1006.21
2023-01-30T06:51:27.019Z,1006.27
2023-01-30T06:52:26.999Z,1006.24
2023-01-30T06:53:26.997Z,1006.21
2023-01-30T06:54:27.005Z,1006.11
2023-01-30T06:55:26.995Z,1006.13
2023-01-30T06:56:26.951Z,1006.16
2023-01-30T06:57:26.955Z,1005.93
2023-01-30T06:58:26.934Z,1006.15
2023-01-30T06:59:26.944Z,1006.21
2023-01-30T07:00:26.929Z,1006.07
2023-01-30T07:01:28.876Z,1005.99
2023-01-30T07:02:26.880Z,1005.98
2023-01-30T07:03:26.914Z,1005.98
2023-01-30T07:04:26.949Z,1006.00
2023-01-30T07:05:26.871Z,1005.90
2023-01-30T07:06:26.872Z,1005.92
2023-01-30T07:07:26.855Z,1005.91
2023-01-30T07:08:26.847Z,1005.85
2023-01-30T07:09:26.831Z,1005.87
2023-01-30T07:10:26.801Z,1005.94
2023-01-30T07:11:26.811Z,1006.02
2023-01-30T07:12:26.793Z,1006.19
2023-01-30T07:13:26.789Z,1005.95
2023-01-30T07:14:26.757Z,1005.98
2023-01-30T07:15:26.793Z,1005.99
2023-01-30T07:16:26.758Z,1005.96
2023-01-30T07:17:26.748Z,1006.00
2023-01-30T07:18:26.731Z,1006.06
2023-01-30T07:19:26.727Z,1006.05
2023-01-30T07:20:26.695Z,1006.01
2023-01-30T07:21:26.704Z,1006.01
2023-01-30T07:22:26.677Z,1006.06
2023-01-30T07:23:26.685Z,1006.08
2023-01-30T07:24:26.679Z,1006.17
2023-01-30T07:25:26.663Z,1006.28
2023-01-30T07:26:26.690Z,1006.18
2023-01-30T07:27:26.644Z,1006.19
2023-01-30T07:28:26.612Z,1006.25
2023-01-30T07:29:26.627Z,1006.24
2023-01-30T07:30:26.661Z,1006.32
2023-01-30T07:31:26.620Z,1006.30
2023-01-30T07:32:26.568Z,1006.26
2023-01-30T07:33:26.599Z,1006.26
2023-01-30T07:34:26.551Z,1006.27
2023-01-30T07:35:26.587Z,1006.22
2023-01-30T07:36:26.550Z,1006.31
2023-01-30T07:37:26.537Z,1006.39
2023-01-30T07:38:26.537Z,1006.39
2023-01-30T07:39:26.519Z,1006.39
2023-01-30T07:40:26.485Z,1006.37
2023-01-30T07:41:26.499Z,1006.35
2023-01-30T07:42:26.503Z,1006.32
2023-01-30T07:43:26.477Z,1006.33
2023-01-30T07:44:26.447Z,1006.41
2023-01-30T07:45:26.460Z,1006.34
2023-01-30T07:46:26.424Z,1006.51
2023-01-30T07:47:26.443Z,1006.60
2023-01-30T07:48:26.478Z,1006.66
2023-01-30T07:49:26.412Z,1006.93
2023-01-30T07:50:26.381Z,1006.76
2023-01-30T07:51:26.403Z,1006.82
2023-01-30T07:52:26.367Z,1006.79
2023-01-30T07:53:26.379Z,1006.72
2023-01-30T07:54:26.357Z,1006.66
2023-01-30T07:55:26.350Z,1006.61
2023-01-30T07:56:26.316Z,1006.59
2023-01-30T07:57:26.329Z,1006.60
2023-01-30T07:58:26.300Z,1006.74
2023-01-30T07:59:26.307Z,1006.68
2023-01-30T08:00:26.316Z,1006.65
2023-01-30T08:01:26.407Z,1006.56
2023-01-30T08:02:26.255Z,1006.63
2023-01-30T08:03:26.273Z,1006.63
2023-01-30T08:04:26.283Z,1006.55
2023-01-30T08:05:26.250Z,1006.62
2023-01-30T08:06:26.325Z,1006.58
2023-01-30T08:07:26.227Z,1006.58
2023-01-30T08:08:26.191Z,1006.53
2023-01-30T08:09:26.208Z,1006.60
2023-01-30T08:10:26.176Z,1006.58
2023-01-30T08:11:26.184Z,1006.61
2023-01-30T08:12:26.177Z,1006.65
2023-01-30T08:13:26.164Z,1006.65
2023-01-30T08:14:26.128Z,1006.71
2023-01-30T08:15:26.149Z,1006.72
2023-01-30T08:16:26.135Z,1006.62
2023-01-30T08:17:26.137Z,1006.69
2023-01-30T08:18:26.118Z,1006.77
2023-01-30T08:19:26.101Z,1006.84
2023-01-30T08:20:26.074Z,1006.78
2023-01-30T08:21:26.093Z,1006.81
2023-01-30T08:22:26.046Z,1006.82
2023-01-30T08:23:26.059Z,1006.85
2023-01-30T08:24:26.041Z,1006.86
2023-01-30T08:25:26.046Z,1006.85
2023-01-30T08:26:26.017Z,1006.96
2023-01-30T08:27:26.018Z,1006.85
2023-01-30T08:28:25.992Z,1006.83
2023-01-30T08:29:25.997Z,1006.90
2023-01-30T08:30:26.033Z,1006.91
2023-01-30T08:31:26.023Z,1006.88
2023-01-30T08:32:25.943Z,1006.87
2023-01-30T08:33:25.956Z,1006.83
2023-01-30T08:34:25.922Z,1006.87
2023-01-30T08:35:25.938Z,1006.79
2023-01-30T08:36:25.927Z,1006.80
2023-01-30T08:37:25.916Z,1006.92
2023-01-30T08:38:25.879Z,1006.90
2023-01-30T08:39:25.893Z,1006.97
2023-01-30T08:40:25.860Z,1006.99
2023-01-30T08:41:25.875Z,1007.01
2023-01-30T08:42:25.871Z,1007.04
2023-01-30T08:43:25.860Z,1007.07
2023-01-30T08:44:25.820Z,1007.08
2023-01-30T08:45:25.841Z,1007.09
2023-01-30T08:46:25.829Z,1007.12
2023-01-30T08:47:25.810Z,1007.10
2023-01-30T08:48:28.186Z,1007.12
2023-01-30T08:49:25.798Z,1007.10
2023-01-30T08:50:25.754Z,1007.09
2023-01-30T08:51:25.769Z,1007.03
2023-01-30T08:52:25.736Z,1007.06
2023-01-30T08:53:25.745Z,1007.03
2023-01-30T08:54:25.735Z,1007.02
2023-01-30T08:55:25.729Z,1006.95
2023-01-30T08:56:25.693Z,1007.11
2023-01-30T08:57:25.708Z,1007.08
2023-01-30T08:58:25.676Z,1007.12
2023-01-30T08:59:25.685Z,1007.04
2023-01-30T09:00:25.700Z,1007.04
2023-01-30T09:01:25.924Z,1007.00
2023-01-30T09:02:25.661Z,1007.02
2023-01-30T09:03:25.642Z,1007.07
2023-01-30T09:04:25.606Z,1007.04
2023-01-30T09:05:25.624Z,1007.09
2023-01-30T09:06:26.335Z,1007.02
2023-01-30T09:07:25.605Z,1007.05
2023-01-30T09:08:25.577Z,1007.07
2023-01-30T09:09:25.581Z,1007.10
2023-01-30T09:10:25.599Z,1007.06
2023-01-30T09:11:25.556Z,1007.05
2023-01-30T09:12:25.563Z,1007.06
2023-01-30T09:13:25.541Z,1007.07
2023-01-30T09:14:25.519Z,1007.13
2023-01-30T09:15:25.520Z,1007.17
2023-01-30T09:16:25.481Z,1007.16
2023-01-30T09:17:25.504Z,1007.22
2023-01-30T09:18:25.494Z,1007.10
2023-01-30T09:19:25.476Z,1007.17
2023-01-30T09:20:25.512Z,1007.13
2023-01-30T09:21:25.454Z,1007.12
2023-01-30T09:22:26.091Z,1007.11
2023-01-30T09:23:25.448Z,1007.20
2023-01-30T09:24:25.426Z,1007.17
2023-01-30T09:25:25.421Z,1007.15
2023-01-30T09:26:25.431Z,1007.08
2023-01-30T09:27:25.394Z,1007.06
2023-01-30T09:28:25.358Z,1006.99
2023-01-30T09:29:25.367Z,1007.00
2023-01-30T09:30:25.390Z,1007.03
2023-01-30T09:31:25.502Z,1006.97
2023-01-30T09:32:25.329Z,1007.06
2023-01-30T09:33:25.323Z,1007.00
2023-01-30T09:34:25.326Z,1006.98
2023-01-30T09:35:25.308Z,1007.04
2023-01-30T09:36:25.300Z,1007.18
2023-01-30T09:37:25.284Z,1007.08
2023-01-30T09:38:25.247Z,1007.16
2023-01-30T09:39:25.260Z,1007.10
2023-01-30T09:40:25.285Z,1007.19
2023-01-30T09:41:25.253Z,1007.11
2023-01-30T09:42:25.236Z,1007.16
2023-01-30T09:43:25.232Z,1007.09
2023-01-30T09:44:25.189Z,1007.15
2023-01-30T09:45:25.202Z,1007.13
2023-01-30T09:46:25.223Z,1007.22
2023-01-30T09:47:25.190Z,1007.23
2023-01-30T09:48:25.169Z,1007.24
2023-01-30T09:49:25.155Z,1007.29
2023-01-30T09:50:25.124Z,1007.33
2023-01-30T09:51:25.137Z,1007.29
2023-01-30T09:52:25.104Z,1007.26
2023-01-30T09:53:25.125Z,1007.20
2023-01-30T09:54:25.113Z,1007.26
2023-01-30T09:55:25.093Z,1007.31
2023-01-30T09:56:25.056Z,1007.24
2023-01-30T09:57:25.082Z,1007.30
2023-01-30T09:58:25.063Z,1007.36
2023-01-30T09:59:25.053Z,1007.30
2023-01-30T10:00:25.044Z,1007.39
2023-01-30T10:01:25.033Z,1007.35
2023-01-30T10:02:25.002Z,1007.35
2023-01-30T10:03:25.063Z,1007.39
2023-01-30T10:04:24.999Z,1007.46
2023-01-30T10:05:25.004Z,1007.52
2023-01-30T10:06:24.983Z,1007.51
2023-01-30T10:07:25.033Z,1007.58
2023-01-30T10:08:24.942Z,1007.53
2023-01-30T10:09:25.449Z,1007.65
2023-01-30T10:10:24.929Z,1007.58
2023-01-30T10:11:24.932Z,1007.62
2023-01-30T10:12:24.924Z,1007.67
2023-01-30T10:13:24.906Z,1007.58
2023-01-30T10:14:24.886Z,1007.63
2023-01-30T10:15:24.881Z,1007.57
2023-01-30T10:16:24.852Z,1007.62
2023-01-30T10:17:24.859Z,1007.54
2023-01-30T10:18:24.866Z,1007.63
2023-01-30T10:19:35.208Z,1007.59
2023-01-30T10:20:25.250Z,1007.50
2023-01-30T10:21:24.818Z,1007.46
2023-01-30T10:22:24.785Z,1007.40
2023-01-30T10:23:24.798Z,1007.43
2023-01-30T10:24:24.806Z,1007.37
2023-01-30T10:25:24.773Z,1007.59
2023-01-30T10:26:24.771Z,1007.40
2023-01-30T10:27:24.751Z,1007.40
2023-01-30T10:28:24.722Z,1007.38
2023-01-30T10:29:24.732Z,1007.48
2023-01-30T10:30:24.902Z,1007.61
2023-01-30T10:31:24.802Z,1007.41
2023-01-30T10:32:24.675Z,1007.46
2023-01-30T10:33:24.705Z,1007.57
2023-01-30T10:34:24.658Z,1007.45
2023-01-30T10:35:26.191Z,1007.78
2023-01-30T10:36:24.657Z,1007.57
2023-01-30T10:37:24.645Z,1007.40
2023-01-30T10:38:24.611Z,1007.43
2023-01-30T10:39:24.640Z,1007.61
2023-01-30T10:40:24.590Z,1007.42
2023-01-30T10:41:24.641Z,1007.37
2023-01-30T10:42:24.595Z,1007.29
2023-01-30T10:43:24.583Z,1007.31
2023-01-30T10:44:24.555Z,1007.28
2023-01-30T10:45:24.573Z,1007.29
2023-01-30T10:46:24.542Z,1007.34
2023-01-30T10:47:26.455Z,1007.43
2023-01-30T10:48:31.358Z,1007.37
2023-01-30T10:49:24.524Z,1007.45
2023-01-30T10:50:24.487Z,1007.40
2023-01-30T10:51:24.502Z,1007.37
2023-01-30T10:52:24.517Z,1007.35
2023-01-30T10:53:24.484Z,1007.39
2023-01-30T10:54:24.467Z,1007.41
2023-01-30T10:55:36.286Z,1007.44
2023-01-30T10:56:24.433Z,1007.39
2023-01-30T10:57:24.448Z,1007.50
2023-01-30T10:58:24.402Z,1007.49
2023-01-30T10:59:24.435Z,1007.42
2023-01-30T11:00:24.477Z,1007.43
2023-01-30T11:01:24.415Z,1007.52
2023-01-30T11:02:24.437Z,1007.48
2023-01-30T11:03:24.346Z,1007.48
2023-01-30T11:04:24.358Z,1007.45
2023-01-30T11:05:24.323Z,1007.58
2023-01-30T11:06:24.367Z,1007.66
2023-01-30T11:07:24.315Z,1007.53
2023-01-30T11:08:24.317Z,1007.51
2023-01-30T11:09:24.723Z,1007.46
2023-01-30T11:10:24.312Z,1007.52
2023-01-30T11:11:24.263Z,1007.48
2023-01-30T11:12:24.299Z,1007.54
2023-01-30T11:13:24.246Z,1007.61
2023-01-30T11:14:24.252Z,1007.48
2023-01-30T11:15:24.222Z,1007.48
2023-01-30T11:16:24.356Z,1007.50
2023-01-30T11:17:24.223Z,1007.67
2023-01-30T11:19:24.202Z,1007.60
2023-01-30T11:20:24.191Z,1007.69
2023-01-30T11:21:26.994Z,1007.56
2023-01-30T11:22:24.177Z,1007.58
2023-01-30T11:23:24.136Z,1007.55
2023-01-30T11:24:24.170Z,1007.58
2023-01-30T11:25:24.115Z,1007.61
2023-01-30T11:26:27.587Z,1007.56
2023-01-30T11:27:24.112Z,1007.61
2023-01-30T11:28:24.126Z,1007.62
2023-01-30T11:29:24.070Z,1007.54
2023-01-30T11:30:24.112Z,1007.59
2023-01-30T11:31:39.992Z,1007.53
2023-01-30T11:32:24.095Z,1007.45
2023-01-30T11:33:24.025Z,1007.49
2023-01-30T11:34:24.059Z,1007.46
2023-01-30T11:35:24.003Z,1007.71
2023-01-30T11:36:24.271Z,1007.54
2023-01-30T11:37:23.989Z,1007.52
2023-01-30T11:38:24.010Z,1007.55
2023-01-30T11:39:23.965Z,1007.50
2023-01-30T11:40:24.032Z,1007.54
2023-01-30T11:41:23.947Z,1007.60
2023-01-30T11:42:24.003Z,1007.60
2023-01-30T11:43:23.927Z,1007.68
2023-01-30T11:44:23.937Z,1007.64
2023-01-30T11:45:23.905Z,1007.59
2023-01-30T11:46:23.972Z,1007.63
2023-01-30T11:47:23.881Z,1007.65
2023-01-30T11:48:33.910Z,1007.58
2023-01-30T11:49:45.506Z,1007.57
2023-01-30T11:50:25.864Z,1007.58
2023-01-30T11:51:23.851Z,1007.67
2023-01-30T11:52:23.849Z,1007.65
2023-01-30T11:53:23.818Z,1007.70
2023-01-30T11:54:23.934Z,1007.64
2023-01-30T11:55:23.811Z,1007.69
2023-01-30T11:56:23.816Z,1007.75
2023-01-30T11:57:23.776Z,1007.77
2023-01-30T11:58:23.788Z,1007.71
2023-01-30T11:59:23.784Z,1007.66
2023-01-30T12:00:23.838Z,1007.71
2023-01-30T12:01:23.734Z,1007.77
2023-01-30T12:02:23.875Z,1007.73
2023-01-30T12:03:23.756Z,1007.62
2023-01-30T12:04:23.734Z,1007.47
2023-01-30T12:05:23.728Z,1007.55
2023-01-30T12:06:23.730Z,1007.63
2023-01-30T12:07:23.734Z,1007.59